Time;durP1;ratioP1;P1;durP2;ratioP2;P2;SDS_P1;SDS_P2;PMS_P1;PMS_P2;Temp;Humidity;BMP_temperature;BMP_pressure;BME280_temperature;BME280_humidity;BME280_pressure;Samples;Min_cycle;Max_cycle;Signal;HPM_P1;HPM_P2
2023/06/05 00:02:03;;;;;;;9.88;5.00;;;;;;;;;;5012910;28;20208;-56
2023/06/05 00:04:28;;;;;;;10.75;4.88;;;;;;;;;;5013983;28;20212;-57
2023/06/05 00:06:54;;;;;;;9.52;4.75;;;;;;;;;;5014062;28;20312;-57
2023/06/05 00:09:20;;;;;;;8.15;5.03;;;;;;;;;;5012746;28;20209;-57
2023/06/05 00:11:45;;;;;;;8.30;4.78;;;;;;;;;;5014014;28;20315;-57
2023/06/05 00:14:10;;;;;;;7.57;5.05;;;;;;;;;;5012865;28;20285;-57
2023/06/05 00:16:36;;;;;;;8.32;4.90;;;;;;;;;;5013112;28;20216;-57
2023/06/05 00:19:01;;;;;;;11.00;5.40;;;;;;;;;;5013293;28;20216;-57
2023/06/05 00:21:27;;;;;;;7.28;5.00;;;;;;;;;;5012897;28;20667;-57
2023/06/05 00:23:52;;;;;;;9.63;5.35;;;;;;;;;;5013386;28;20215;-57
2023/06/05 00:26:17;;;;;;;10.95;5.25;;;;;;;;;;5013273;28;20634;-57
2023/06/05 00:28:43;;;;;;;7.93;5.47;;;;;;;;;;5012359;28;20339;-57
2023/06/05 00:31:08;;;;;;;9.40;5.85;;;;;;;;;;5013122;28;20221;-57
2023/06/05 00:33:33;;;;;;;12.48;5.60;;;;;;;;;;5013587;28;20679;-57
2023/06/05 00:35:58;;;;;;;10.05;5.75;;;;;;;;;;5012499;28;20299;-57
2023/06/05 00:38:24;;;;;;;10.50;6.10;;;;;;;;;;5013036;28;20227;-57
2023/06/05 00:40:49;;;;;;;12.82;6.18;;;;;;;;;;5013425;28;20213;-57
2023/06/05 00:43:15;;;;;;;9.55;6.15;;;;;;;;;;5011811;28;20217;-57
2023/06/05 00:45:40;;;;;;;7.55;5.72;;;;;;;;;;5013166;28;20241;-57
2023/06/05 00:48:06;;;;;;;9.68;6.20;;;;;;;;;;5012735;28;20220;-56
2023/06/05 00:50:32;;;;;;;8.73;5.65;;;;;;;;;;5012442;28;20216;-57
2023/06/05 00:52:57;;;;;;;10.50;6.63;;;;;;;;;;5013005;28;20675;-57
2023/06/05 00:55:22;;;;;;;10.90;6.90;;;;;;;;;;5011378;28;20216;-57
2023/06/05 00:57:48;;;;;;;9.57;6.38;;;;;;;;;;5010729;28;20209;-57
2023/06/05 01:00:13;;;;;;;10.60;6.47;;;;;;;;;;5012589;28;20226;-57
2023/06/05 01:02:39;;;;;;;12.20;6.75;;;;;;;;;;5013141;28;20265;-57
2023/06/05 01:05:05;;;;;;;11.38;7.43;;;;;;;;;;5011859;28;20706;-57
2023/06/05 01:07:32;;;;;;;10.10;7.10;;;;;;;;;;5012802;28;20292;-57
2023/06/05 01:10:01;;;;;;;11.65;7.28;;;;;;;;;;5011490;28;20291;-57
2023/06/05 01:12:28;;;;;;;11.23;6.55;;;;;;;;;;5011614;28;20228;-57
2023/06/05 01:14:58;;;;;;;10.30;7.40;;;;;;;;;;5011291;28;20754;-57
2023/06/05 01:17:25;;;;;;;12.05;7.55;;;;;;;;;;5012413;28;20220;-57
2023/06/05 01:19:50;;;;;;;11.55;8.15;;;;;;;;;;5011925;28;20214;-57
2023/06/05 01:22:16;;;;;;;11.60;7.55;;;;;;;;;;5011100;28;20212;-57
2023/06/05 01:24:41;;;;;;;11.82;7.43;;;;;;;;;;5011767;28;20208;-57
2023/06/05 01:27:08;;;;;;;11.63;8.10;;;;;;;;;;5011874;28;20219;-57
2023/06/05 01:29:43;;;;;;;12.82;7.80;;;;;;;;;;5011198;28;20204;-57
2023/06/05 01:32:15;;;;;;;10.93;7.60;;;;;;;;;;5010133;28;20232;-57
2023/06/05 01:34:43;;;;;;;11.88;7.95;;;;;;;;;;5012641;28;20212;-57
2023/06/05 01:37:08;;;;;;;12.27;7.97;;;;;;;;;;5010910;28;20223;-56
2023/06/05 01:39:33;;;;;;;13.73;8.20;;;;;;;;;;5011479;28;20583;-57
2023/06/05 01:41:59;;;;;;;15.25;7.95;;;;;;;;;;5011312;28;20200;-57
2023/06/05 01:44:25;;;;;;;13.50;8.30;;;;;;;;;;5011765;28;20282;-57
2023/06/05 01:46:50;;;;;;;16.95;8.32;;;;;;;;;;5010524;28;20251;-57
2023/06/05 01:49:16;;;;;;;16.67;8.82;;;;;;;;;;5012077;28;20212;-57
2023/06/05 01:51:41;;;;;;;12.15;8.18;;;;;;;;;;5012446;28;20618;-57
2023/06/05 01:54:07;;;;;;;15.93;9.35;;;;;;;;;;5010897;28;20263;-57
2023/06/05 01:56:35;;;;;;;13.02;9.13;;;;;;;;;;5012097;28;20212;-57
2023/06/05 01:59:06;;;;;;;9.95;7.93;;;;;;;;;;5011802;28;20228;-57
2023/06/05 02:01:31;;;;;;;14.75;8.68;;;;;;;;;;5011645;28;20706;-57
2023/06/05 02:03:57;;;;;;;15.30;9.45;;;;;;;;;;5012280;28;20212;-56
2023/06/05 02:06:22;;;;;;;13.30;8.75;;;;;;;;;;5011889;28;20244;-57
2023/06/05 02:08:47;;;;;;;12.90;9.25;;;;;;;;;;5011305;28;20212;-57
2023/06/05 02:11:13;;;;;;;12.85;9.05;;;;;;;;;;5011625;28;20231;-57
2023/06/05 02:13:39;;;;;;;14.43;10.65;;;;;;;;;;5011974;28;20243;-57
2023/06/05 02:16:04;;;;;;;13.68;9.38;;;;;;;;;;5010996;28;20220;-57
2023/06/05 02:18:30;;;;;;;14.68;9.63;;;;;;;;;;5015063;28;20223;-57
2023/06/05 02:20:56;;;;;;;14.27;8.57;;;;;;;;;;5015401;28;20238;-57
2023/06/05 02:23:21;;;;;;;15.63;9.48;;;;;;;;;;5015311;28;20298;-57
2023/06/05 02:25:47;;;;;;;12.50;9.27;;;;;;;;;;5015881;28;20694;-57
2023/06/05 02:28:13;;;;;;;13.95;10.00;;;;;;;;;;5014254;28;20346;-57
2023/06/05 02:30:38;;;;;;;15.25;9.95;;;;;;;;;;5015786;28;20585;-57
2023/06/05 02:33:03;;;;;;;12.82;9.73;;;;;;;;;;5004081;28;20221;-57
2023/06/05 02:35:29;;;;;;;17.17;10.65;;;;;;;;;;4995411;28;20558;-57
2023/06/05 02:37:56;;;;;;;14.15;10.00;;;;;;;;;;4995998;28;20240;-57
2023/06/05 02:40:21;;;;;;;13.23;10.10;;;;;;;;;;4995648;28;20209;-57
2023/06/05 02:42:46;;;;;;;13.25;9.52;;;;;;;;;;4994809;28;20227;-57
2023/06/05 02:45:12;;;;;;;15.65;10.27;;;;;;;;;;4995618;28;20205;-57
2023/06/05 02:47:37;;;;;;;16.60;10.82;;;;;;;;;;4995996;28;20222;-57
2023/06/05 02:50:02;;;;;;;19.45;11.45;;;;;;;;;;4994655;28;20217;-56
2023/06/05 02:52:28;;;;;;;14.02;10.35;;;;;;;;;;5002400;28;20217;-56
2023/06/05 02:54:53;;;;;;;18.23;11.55;;;;;;;;;;5015215;28;20676;-57
2023/06/05 02:57:18;;;;;;;16.20;10.85;;;;;;;;;;5013611;28;20291;-57
2023/06/05 02:59:44;;;;;;;14.48;10.38;;;;;;;;;;5015506;28;20583;-57
2023/06/05 03:02:09;;;;;;;17.45;11.20;;;;;;;;;;5014834;28;20679;-56
2023/06/05 03:04:36;;;;;;;15.68;10.35;;;;;;;;;;5014472;28;20220;-56
2023/06/05 03:07:03;;;;;;;19.15;11.82;;;;;;;;;;5014645;28;20220;-56
2023/06/05 03:09:29;;;;;;;20.67;12.13;;;;;;;;;;5014877;28;20805;-57
2023/06/05 03:11:54;;;;;;;17.17;10.65;;;;;;;;;;5013814;28;20224;-57
2023/06/05 03:14:20;;;;;;;17.80;11.80;;;;;;;;;;5014528;28;20560;-57
2023/06/05 03:16:45;;;;;;;18.30;11.85;;;;;;;;;;5014968;28;20724;-57
2023/06/05 03:19:11;;;;;;;18.05;11.93;;;;;;;;;;5013385;28;20263;-57
2023/06/05 03:21:37;;;;;;;17.70;12.05;;;;;;;;;;5014799;28;20254;-57
2023/06/05 03:24:03;;;;;;;16.27;11.52;;;;;;;;;;5001106;28;20304;-57
2023/06/05 03:26:28;;;;;;;17.75;11.10;;;;;;;;;;4985281;28;20316;-57
2023/06/05 03:28:54;;;;;;;17.10;11.05;;;;;;;;;;4986397;28;20256;-57
2023/06/05 03:31:19;;;;;;;19.27;12.15;;;;;;;;;;4977488;28;20233;-57
2023/06/05 03:33:46;;;;;;;19.48;12.25;;;;;;;;;;4997199;28;20550;-57
2023/06/05 03:36:11;;;;;;;19.85;12.10;;;;;;;;;;5004475;28;20315;-57
2023/06/05 03:38:36;;;;;;;23.48;12.65;;;;;;;;;;5003571;28;20327;-57
2023/06/05 03:41:02;;;;;;;17.40;11.82;;;;;;;;;;5001135;28;20692;-57
2023/06/05 03:43:27;;;;;;;20.77;11.93;;;;;;;;;;5003845;28;20298;-57
2023/06/05 03:45:53;;;;;;;19.92;13.20;;;;;;;;;;5003927;28;20213;-57
2023/06/05 03:48:21;;;;;;;19.50;12.30;;;;;;;;;;4997297;28;20231;-57
2023/06/05 03:50:47;;;;;;;20.13;12.90;;;;;;;;;;4996019;28;20640;-57
2023/06/05 03:53:13;;;;;;;19.40;12.82;;;;;;;;;;4982495;28;20209;-57
2023/06/05 03:55:41;;;;;;;17.23;12.20;;;;;;;;;;4983190;28;20579;-57
2023/06/05 03:58:10;;;;;;;18.77;12.32;;;;;;;;;;4999750;28;20829;-57
2023/06/05 04:00:35;;;;;;;21.30;13.27;;;;;;;;;;5003300;28;20220;-57
2023/06/05 04:03:00;;;;;;;17.38;12.73;;;;;;;;;;5004022;28;20231;-57
2023/06/05 04:05:25;;;;;;;18.63;12.55;;;;;;;;;;5003609;28;20306;-58
2023/06/05 04:07:51;;;;;;;19.80;11.98;;;;;;;;;;5003487;28;20215;-57
2023/06/05 04:10:16;;;;;;;17.27;12.45;;;;;;;;;;4999619;28;20553;-57
2023/06/05 04:12:41;;;;;;;18.90;12.68;;;;;;;;;;4995212;28;20236;-57
2023/06/05 04:15:09;;;;;;;17.15;11.95;;;;;;;;;;4985528;28;20295;-56
2023/06/05 04:17:34;;;;;;;19.13;12.80;;;;;;;;;;4980974;28;20900;-57
2023/06/05 04:19:59;;;;;;;21.88;13.80;;;;;;;;;;4984903;28;20818;-57
2023/06/05 04:22:24;;;;;;;22.08;12.82;;;;;;;;;;4983648;28;20217;-57
2023/06/05 04:24:50;;;;;;;17.92;12.18;;;;;;;;;;4984613;28;20274;-57
2023/06/05 04:27:16;;;;;;;20.23;12.20;;;;;;;;;;4983464;28;20237;-57
2023/06/05 04:29:44;;;;;;;20.20;13.15;;;;;;;;;;5002701;28;20240;-57
2023/06/05 04:32:09;;;;;;;19.48;12.45;;;;;;;;;;4999105;28;20557;-57
2023/06/05 04:34:34;;;;;;;20.55;12.65;;;;;;;;;;4975657;28;20240;-57
2023/06/05 04:37:01;;;;;;;20.35;12.32;;;;;;;;;;4976061;28;20219;-58
2023/06/05 04:39:26;;;;;;;19.45;12.10;;;;;;;;;;4996354;28;20212;-57
2023/06/05 04:41:52;;;;;;;16.50;12.00;;;;;;;;;;5002419;28;20578;-57
2023/06/05 04:44:17;;;;;;;17.55;12.52;;;;;;;;;;5002547;28;20216;-57
2023/06/05 04:46:45;;;;;;;19.45;13.52;;;;;;;;;;5003279;28;20232;-57
2023/06/05 04:49:13;;;;;;;17.33;11.93;;;;;;;;;;5001807;28;20302;-57
2023/06/05 04:51:39;;;;;;;20.92;12.02;;;;;;;;;;5003303;28;20228;-57
2023/06/05 04:54:05;;;;;;;19.08;12.10;;;;;;;;;;4983198;28;20221;-57
2023/06/05 04:56:32;;;;;;;17.25;11.20;;;;;;;;;;4982971;28;20221;-57
2023/06/05 04:58:59;;;;;;;20.55;12.63;;;;;;;;;;4994379;28;20208;-57
2023/06/05 05:01:24;;;;;;;20.05;11.23;;;;;;;;;;4994903;28;20527;-57
2023/06/05 05:03:51;;;;;;;16.67;11.25;;;;;;;;;;5001826;28;20299;-57
2023/06/05 05:06:17;;;;;;;19.23;11.70;;;;;;;;;;5002335;28;20212;-57
2023/06/05 05:08:44;;;;;;;16.52;11.10;;;;;;;;;;5002967;28;20558;-58
2023/06/05 05:11:10;;;;;;;19.52;12.88;;;;;;;;;;5002391;28;20233;-57
2023/06/05 05:13:35;;;;;;;15.98;11.00;;;;;;;;;;5002853;28;20258;-57
2023/06/05 05:16:01;;;;;;;18.88;11.55;;;;;;;;;;4986153;28;20280;-56
2023/06/05 05:18:28;;;;;;;15.77;11.35;;;;;;;;;;4977782;28;20838;-57
2023/06/05 05:20:53;;;;;;;15.77;10.70;;;;;;;;;;4975427;28;20440;-57
2023/06/05 05:23:20;;;;;;;20.77;11.30;;;;;;;;;;4974633;28;20213;-57
2023/06/05 05:25:46;;;;;;;16.20;10.32;;;;;;;;;;4979454;28;20297;-57
2023/06/05 05:28:11;;;;;;;16.45;9.82;;;;;;;;;;4982911;28;20237;-57
2023/06/05 05:30:36;;;;;;;16.15;11.00;;;;;;;;;;4983028;28;20304;-57
2023/06/05 05:33:01;;;;;;;13.75;10.13;;;;;;;;;;4990844;28;20218;-57
2023/06/05 05:35:27;;;;;;;16.90;11.18;;;;;;;;;;5002299;28;20620;-57
2023/06/05 05:37:52;;;;;;;14.68;9.88;;;;;;;;;;5001986;28;20276;-57
2023/06/05 05:40:17;;;;;;;15.27;10.40;;;;;;;;;;4998957;28;20683;-57
2023/06/05 05:42:43;;;;;;;13.95;9.95;;;;;;;;;;4995041;28;20528;-57
2023/06/05 05:45:08;;;;;;;18.38;10.07;;;;;;;;;;4992590;28;20249;-57
2023/06/05 05:47:34;;;;;;;16.00;10.85;;;;;;;;;;4996954;28;20209;-58
2023/06/05 05:49:59;;;;;;;16.45;10.90;;;;;;;;;;5002284;28;20637;-57
2023/06/05 05:52:24;;;;;;;17.20;10.88;;;;;;;;;;4995023;28;20344;-57
2023/06/05 05:54:51;;;;;;;14.65;10.10;;;;;;;;;;5006165;28;20212;-57
2023/06/05 05:57:17;;;;;;;15.25;9.50;;;;;;;;;;4988150;28;20209;-57
2023/06/05 05:59:44;;;;;;;15.73;11.13;;;;;;;;;;4986010;28;20435;-57
2023/06/05 06:02:09;;;;;;;13.80;10.18;;;;;;;;;;4993621;28;20316;-57
2023/06/05 06:04:35;;;;;;;18.05;10.25;;;;;;;;;;4979012;28;20221;-57
2023/06/05 06:07:00;;;;;;;15.43;10.10;;;;;;;;;;4977717;28;20515;-54
2023/06/05 06:09:26;;;;;;;18.60;9.27;;;;;;;;;;4979047;28;20209;-57
2023/06/05 06:11:55;;;;;;;14.77;9.43;;;;;;;;;;4986564;28;20597;-57
2023/06/05 06:14:21;;;;;;;14.50;9.68;;;;;;;;;;5002351;28;20259;-57
2023/06/05 06:16:46;;;;;;;13.95;8.93;;;;;;;;;;4986552;28;20241;-57
2023/06/05 06:19:15;;;;;;;13.88;9.30;;;;;;;;;;4986281;28;20244;-57
2023/06/05 06:21:40;;;;;;;12.68;8.73;;;;;;;;;;5005332;28;20263;-57
2023/06/05 06:24:06;;;;;;;15.45;9.05;;;;;;;;;;5004929;28;20236;-56
2023/06/05 06:26:31;;;;;;;13.50;8.40;;;;;;;;;;5000387;28;20212;-57
2023/06/05 06:28:59;;;;;;;11.93;8.52;;;;;;;;;;4996247;28;20974;-57
2023/06/05 06:31:24;;;;;;;15.13;8.77;;;;;;;;;;4997314;28;20406;-57
2023/06/05 06:33:52;;;;;;;15.18;8.90;;;;;;;;;;4988133;28;20304;-57
2023/06/05 06:36:18;;;;;;;14.85;9.20;;;;;;;;;;5004356;28;20299;-57
2023/06/05 06:38:43;;;;;;;13.02;9.30;;;;;;;;;;5005584;28;20704;-57
2023/06/05 06:41:08;;;;;;;13.32;8.55;;;;;;;;;;5004907;28;20213;-57
2023/06/05 06:43:34;;;;;;;12.75;8.80;;;;;;;;;;4988901;28;20299;-57
2023/06/05 06:46:00;;;;;;;14.00;8.20;;;;;;;;;;4990125;28;20217;-57
2023/06/05 06:48:25;;;;;;;11.93;7.80;;;;;;;;;;5012052;28;20558;-57
2023/06/05 06:50:52;;;;;;;13.45;8.40;;;;;;;;;;5014907;28;20601;-57
2023/06/05 06:53:17;;;;;;;14.35;7.78;;;;;;;;;;5014771;28;20227;-57
2023/06/05 06:55:42;;;;;;;11.70;7.70;;;;;;;;;;5013168;28;20212;-57
2023/06/05 06:58:08;;;;;;;12.88;7.32;;;;;;;;;;5013394;28;20262;-57
2023/06/05 07:00:33;;;;;;;12.85;8.30;;;;;;;;;;5015150;28;20216;-57
2023/06/05 07:02:59;;;;;;;14.00;8.80;;;;;;;;;;5014025;28;20291;-57
2023/06/05 07:05:24;;;;;;;12.15;7.90;;;;;;;;;;5014842;28;20212;-57
2023/06/05 07:07:49;;;;;;;12.45;7.45;;;;;;;;;;5013990;28;20286;-57
2023/06/05 07:10:15;;;;;;;13.15;7.70;;;;;;;;;;5013468;28;20619;-57
2023/06/05 07:12:40;;;;;;;11.10;7.35;;;;;;;;;;5014618;28;20225;-57
2023/06/05 07:15:05;;;;;;;14.52;7.40;;;;;;;;;;5014059;28;20208;-55
2023/06/05 07:17:31;;;;;;;15.65;7.32;;;;;;;;;;5014158;28;20734;-57
2023/06/05 07:19:57;;;;;;;11.32;7.07;;;;;;;;;;5014188;28;20216;-57
2023/06/05 07:22:24;;;;;;;13.18;7.32;;;;;;;;;;5014362;28;20295;-58
2023/06/05 07:24:49;;;;;;;12.20;7.57;;;;;;;;;;5013396;28;20574;-57
2023/06/05 07:27:15;;;;;;;12.68;7.35;;;;;;;;;;5009906;28;20232;-57
2023/06/05 07:29:40;;;;;;;12.45;7.22;;;;;;;;;;5014914;28;20219;-57
2023/06/05 07:32:06;;;;;;;12.93;7.03;;;;;;;;;;5011354;28;20695;-57
2023/06/05 07:34:31;;;;;;;12.10;6.45;;;;;;;;;;4995081;28;20699;-57
2023/06/05 07:36:56;;;;;;;12.80;6.45;;;;;;;;;;4994991;28;20583;-58
2023/06/05 07:39:22;;;;;;;13.05;7.97;;;;;;;;;;4993679;28;20232;-57
2023/06/05 07:41:47;;;;;;;14.68;7.65;;;;;;;;;;5009048;28;20211;-58
2023/06/05 07:44:13;;;;;;;13.18;7.72;;;;;;;;;;5013050;28;20576;-57
2023/06/05 07:46:45;;;;;;;13.88;7.22;;;;;;;;;;5011870;28;20619;-57
2023/06/05 07:49:10;;;;;;;11.50;7.45;;;;;;;;;;4996551;28;20224;-58
2023/06/05 07:51:36;;;;;;;13.90;7.53;;;;;;;;;;5013276;28;20216;-57
2023/06/05 07:54:03;;;;;;;11.18;7.20;;;;;;;;;;5012265;28;20291;-57
2023/06/05 07:56:28;;;;;;;12.07;7.57;;;;;;;;;;5014121;28;20304;-57
2023/06/05 07:58:53;;;;;;;12.15;7.50;;;;;;;;;;5010586;28;20296;-58
2023/06/05 08:01:22;;;;;;;10.60;7.00;;;;;;;;;;5013363;28;20223;-57
2023/06/05 08:03:50;;;;;;;11.40;7.47;;;;;;;;;;5013845;28;20215;-58
2023/06/05 08:06:15;;;;;;;11.10;7.03;;;;;;;;;;5012878;28;20220;-58
2023/06/05 08:08:42;;;;;;;13.00;7.18;;;;;;;;;;5014010;28;20215;-57
2023/06/05 08:11:10;;;;;;;15.15;7.72;;;;;;;;;;5012207;28;20228;-56
2023/06/05 08:13:39;;;;;;;13.05;7.00;;;;;;;;;;5012739;28;20224;-57
2023/06/05 08:16:05;;;;;;;12.05;7.88;;;;;;;;;;5012098;28;20209;-57
2023/06/05 08:18:30;;;;;;;10.00;7.35;;;;;;;;;;5013682;28;20573;-58
2023/06/05 08:21:01;;;;;;;11.85;7.57;;;;;;;;;;5012333;28;20219;-58
2023/06/05 08:23:27;;;;;;;13.25;7.32;;;;;;;;;;5011767;28;20671;-58
2023/06/05 08:25:53;;;;;;;14.73;7.95;;;;;;;;;;5013209;28;20299;-58
2023/06/05 08:28:19;;;;;;;18.50;7.35;;;;;;;;;;5009951;28;20247;-58
2023/06/05 08:30:45;;;;;;;11.45;7.25;;;;;;;;;;5013515;28;20262;-58
2023/06/05 08:33:10;;;;;;;12.75;7.38;;;;;;;;;;5012864;28;20220;-58
2023/06/05 08:35:36;;;;;;;14.93;7.47;;;;;;;;;;5012325;28;20236;-58
2023/06/05 08:38:02;;;;;;;14.00;6.82;;;;;;;;;;5013067;28;20212;-57
2023/06/05 08:40:31;;;;;;;12.52;6.47;;;;;;;;;;5013272;28;20287;-58
2023/06/05 08:42:57;;;;;;;12.10;7.18;;;;;;;;;;5012289;28;20209;-58
2023/06/05 08:45:26;;;;;;;11.57;6.38;;;;;;;;;;5012653;28;20212;-58
2023/06/05 08:47:52;;;;;;;11.10;6.75;;;;;;;;;;5011140;28;20263;-58
2023/06/05 08:50:17;;;;;;;13.48;6.68;;;;;;;;;;5011485;28;20216;-57
2023/06/05 08:52:45;;;;;;;11.77;6.85;;;;;;;;;;5013284;28;20228;-58
2023/06/05 08:55:17;;;;;;;9.88;6.20;;;;;;;;;;5011619;28;20220;-58
2023/06/05 08:57:42;;;;;;;11.73;6.53;;;;;;;;;;5012212;28;20208;-58
2023/06/05 09:00:10;;;;;;;9.88;6.90;;;;;;;;;;5012670;28;20219;-58
2023/06/05 09:02:38;;;;;;;11.82;6.80;;;;;;;;;;5012225;28;20243;-58
2023/06/05 09:05:08;;;;;;;9.38;7.45;;;;;;;;;;5011207;28;20295;-57
2023/06/05 09:07:39;;;;;;;14.70;6.68;;;;;;;;;;5012675;28;20647;-58
2023/06/05 09:10:05;;;;;;;8.70;6.70;;;;;;;;;;5011840;28;20216;-59
2023/06/05 09:12:32;;;;;;;12.70;7.25;;;;;;;;;;5012342;28;20220;-58
2023/06/05 09:15:00;;;;;;;13.23;6.47;;;;;;;;;;5011583;28;20671;-58
2023/06/05 09:17:29;;;;;;;9.75;6.47;;;;;;;;;;5010354;28;20295;-58
2023/06/05 09:19:57;;;;;;;14.02;7.47;;;;;;;;;;5012487;28;20215;-58
2023/06/05 09:25:20;;;;;;;8.85;6.60;;;;;;;;;;5011979;28;20243;-58
2023/06/05 09:27:52;;;;;;;10.85;6.80;;;;;;;;;;5011965;28;20658;-58
2023/06/05 09:30:20;;;;;;;9.75;6.40;;;;;;;;;;5008967;28;20705;-58
2023/06/05 09:32:46;;;;;;;11.27;6.22;;;;;;;;;;5028728;28;20220;-58
2023/06/05 09:35:25;;;;;;;10.02;6.32;;;;;;;;;;5029849;28;20212;-58
2023/06/05 09:37:51;;;;;;;11.48;6.85;;;;;;;;;;5011734;28;20247;-58
2023/06/05 09:40:22;;;;;;;11.15;6.85;;;;;;;;;;5011605;28;20240;-58
2023/06/05 09:42:48;;;;;;;11.80;7.18;;;;;;;;;;5010804;28;20216;-57
2023/06/05 09:45:13;;;;;;;10.93;6.20;;;;;;;;;;5011138;28;20262;-57
2023/06/05 09:47:45;;;;;;;10.73;6.35;;;;;;;;;;5012374;28;20327;-57
2023/06/05 09:50:20;;;;;;;9.70;6.63;;;;;;;;;;5011771;28;20663;-57
2023/06/05 09:53:06;;;;;;;9.85;6.38;;;;;;;;;;5011541;28;20227;-57
2023/06/05 09:55:37;;;;;;;10.65;6.38;;;;;;;;;;5011799;28;20205;-57
2023/06/05 09:58:11;;;;;;;10.70;7.15;;;;;;;;;;5010123;28;20208;-57
2023/06/05 10:00:38;;;;;;;10.95;6.18;;;;;;;;;;5011150;28;20212;-58
2023/06/05 10:03:21;;;;;;;9.38;6.93;;;;;;;;;;5009901;28;20216;-57
2023/06/05 10:05:47;;;;;;;12.38;7.20;;;;;;;;;;5009417;28;20266;-58
2023/06/05 10:08:15;;;;;;;10.85;6.55;;;;;;;;;;5011665;28;20216;-57
2023/06/05 10:10:46;;;;;;;10.50;6.63;;;;;;;;;;5012215;28;20291;-58
2023/06/05 10:13:12;;;;;;;14.18;7.57;;;;;;;;;;5010844;28;20255;-57
2023/06/05 10:15:38;;;;;;;12.55;6.70;;;;;;;;;;5012049;28;20216;-57
2023/06/05 10:18:06;;;;;;;11.65;7.00;;;;;;;;;;5010029;28;20212;-57
2023/06/05 10:20:32;;;;;;;12.02;6.45;;;;;;;;;;5010835;28;20558;-58
2023/06/05 10:22:57;;;;;;;12.38;6.82;;;;;;;;;;5011898;28;20243;-58
2023/06/05 10:25:26;;;;;;;11.80;7.20;;;;;;;;;;5011778;28;20548;-58
2023/06/05 10:27:55;;;;;;;12.20;6.40;;;;;;;;;;5010572;28;20652;-58
2023/06/05 10:30:39;;;;;;;13.85;7.10;;;;;;;;;;5011667;28;20646;-58
2023/06/05 10:33:09;;;;;;;14.18;6.45;;;;;;;;;;5010304;28;20224;-57
2023/06/05 10:35:54;;;;;;;8.50;6.55;;;;;;;;;;5009799;28;20292;-58
2023/06/05 10:38:20;;;;;;;9.98;6.75;;;;;;;;;;5012220;28;20240;-58
2023/06/05 10:41:01;;;;;;;8.85;6.00;;;;;;;;;;5014401;28;20682;-58
2023/06/05 10:43:35;;;;;;;9.80;5.75;;;;;;;;;;5013895;28;20254;-58
2023/06/05 10:46:19;;;;;;;9.23;5.95;;;;;;;;;;5015084;28;20212;-56
2023/06/05 10:49:07;;;;;;;10.13;5.40;;;;;;;;;;5014725;28;20219;-58
2023/06/05 10:51:37;;;;;;;12.63;5.10;;;;;;;;;;5014680;28;20229;-58
2023/06/05 10:54:17;;;;;;;11.98;6.57;;;;;;;;;;5014846;28;20212;-57
2023/06/05 10:59:20;;;;;;;11.02;5.93;;;;;;;;;;5014805;28;20212;-58
2023/06/05 11:02:06;;;;;;;13.35;5.90;;;;;;;;;;5014518;28;20216;-58
2023/06/05 11:04:46;;;;;;;9.63;5.63;;;;;;;;;;5013936;28;20241;-58
2023/06/05 11:07:21;;;;;;;8.98;5.18;;;;;;;;;;5014686;28;20299;-58
2023/06/05 11:10:05;;;;;;;9.40;5.47;;;;;;;;;;5014482;28;20204;-58
2023/06/05 11:12:42;;;;;;;9.88;5.43;;;;;;;;;;5014498;28;20231;-58
2023/06/05 11:15:11;;;;;;;10.25;5.57;;;;;;;;;;5014594;28;20675;-58
2023/06/05 11:17:37;;;;;;;9.00;4.90;;;;;;;;;;5014364;28;20220;-58
2023/06/05 11:20:07;;;;;;;7.40;4.47;;;;;;;;;;5013582;28;20626;-58
2023/06/05 11:22:33;;;;;;;10.90;5.25;;;;;;;;;;5013789;28;20219;-58
2023/06/05 11:25:13;;;;;;;10.88;5.50;;;;;;;;;;5014656;28;20287;-58
2023/06/05 11:27:49;;;;;;;7.35;4.65;;;;;;;;;;5013828;28;20208;-58
2023/06/05 11:30:18;;;;;;;7.72;4.70;;;;;;;;;;5013615;28;20259;-58
2023/06/05 11:32:43;;;;;;;7.32;4.82;;;;;;;;;;5014686;28;20228;-58
2023/06/05 11:35:09;;;;;;;7.93;4.97;;;;;;;;;;5014240;28;20208;-58
2023/06/05 11:37:34;;;;;;;8.32;4.78;;;;;;;;;;5013626;28;20671;-58
2023/06/05 11:40:13;;;;;;;7.97;4.57;;;;;;;;;;5014355;28;20667;-58
2023/06/05 11:42:38;;;;;;;9.00;5.10;;;;;;;;;;5014050;28;20209;-58
2023/06/05 11:45:13;;;;;;;8.45;4.55;;;;;;;;;;5012991;28;20220;-57
2023/06/05 11:47:39;;;;;;;7.90;5.07;;;;;;;;;;5011486;28;20299;-58
2023/06/05 11:50:11;;;;;;;8.80;5.05;;;;;;;;;;5013072;28;20633;-58
2023/06/05 11:52:36;;;;;;;8.52;4.65;;;;;;;;;;5012036;28;20610;-58
2023/06/05 11:55:15;;;;;;;9.30;5.00;;;;;;;;;;5013193;28;20220;-57
2023/06/05 11:57:41;;;;;;;9.60;5.07;;;;;;;;;;5012652;28;20236;-58
2023/06/05 12:00:07;;;;;;;10.63;5.38;;;;;;;;;;5013217;28;20255;-58
2023/06/05 12:02:32;;;;;;;8.20;4.55;;;;;;;;;;5013072;28;20739;-58
2023/06/05 12:04:58;;;;;;;9.48;4.63;;;;;;;;;;5012118;28;20204;-58
2023/06/05 12:07:29;;;;;;;9.55;3.83;;;;;;;;;;5012055;28;20573;-58
2023/06/05 12:09:55;;;;;;;7.60;4.65;;;;;;;;;;5012484;28;20212;-58
2023/06/05 12:12:20;;;;;;;10.60;5.35;;;;;;;;;;5012364;28;20227;-58
2023/06/05 12:14:46;;;;;;;9.32;5.00;;;;;;;;;;5013590;28;20255;-58
2023/06/05 12:17:12;;;;;;;7.90;4.47;;;;;;;;;;5013536;28;20644;-58
2023/06/05 12:19:37;;;;;;;7.85;4.85;;;;;;;;;;5012940;28;20212;-58
2023/06/05 12:22:06;;;;;;;9.50;4.25;;;;;;;;;;5013423;28;20282;-57
2023/06/05 12:24:32;;;;;;;8.23;4.00;;;;;;;;;;5023706;28;20215;-58
2023/06/05 12:27:06;;;;;;;8.05;4.40;;;;;;;;;;5032298;28;20211;-58
2023/06/05 12:29:31;;;;;;;8.00;4.13;;;;;;;;;;5032803;28;20234;-58
2023/06/05 12:31:57;;;;;;;7.65;4.18;;;;;;;;;;5033389;28;20227;-58
2023/06/05 12:34:51;;;;;;;7.05;3.92;;;;;;;;;;5031717;28;20286;-58
2023/06/05 12:37:23;;;;;;;6.68;4.40;;;;;;;;;;5032773;28;20646;-58
2023/06/05 12:39:48;;;;;;;8.40;4.40;;;;;;;;;;5032842;28;20274;-58
2023/06/05 12:42:13;;;;;;;7.47;3.80;;;;;;;;;;5032003;28;20682;-58
2023/06/05 12:44:39;;;;;;;6.90;3.97;;;;;;;;;;5032899;28;20580;-58
2023/06/05 12:47:05;;;;;;;7.95;4.40;;;;;;;;;;5031815;28;20237;-58
2023/06/05 12:49:30;;;;;;;8.48;4.70;;;;;;;;;;5032979;28;20215;-58
2023/06/05 12:51:57;;;;;;;9.15;4.20;;;;;;;;;;5030444;28;20224;-58
2023/06/05 12:54:22;;;;;;;8.27;4.05;;;;;;;;;;5018777;28;20203;-58
2023/06/05 12:56:48;;;;;;;6.82;4.47;;;;;;;;;;5017849;28;20655;-58
2023/06/05 12:59:14;;;;;;;9.25;4.10;;;;;;;;;;5012430;28;20216;-58
2023/06/05 13:01:40;;;;;;;7.82;4.43;;;;;;;;;;5012205;28;20204;-58
2023/06/05 13:04:05;;;;;;;9.85;4.28;;;;;;;;;;5012623;28;20219;-58
2023/06/05 13:06:33;;;;;;;8.23;4.68;;;;;;;;;;5013190;28;20212;-58
2023/06/05 13:08:58;;;;;;;9.18;4.70;;;;;;;;;;5012229;28;20205;-58
2023/06/05 13:11:23;;;;;;;7.43;4.70;;;;;;;;;;5012061;28;20247;-59
2023/06/05 13:13:49;;;;;;;8.20;4.68;;;;;;;;;;5013053;28;20725;-59
2023/06/05 13:16:14;;;;;;;8.20;4.53;;;;;;;;;;5011689;28;20214;-58
2023/06/05 13:18:39;;;;;;;8.13;4.80;;;;;;;;;;5013034;28;20626;-58
2023/06/05 13:21:05;;;;;;;13.55;4.70;;;;;;;;;;5012545;28;20208;-58
2023/06/05 13:23:31;;;;;;;7.68;4.45;;;;;;;;;;5011966;28;20201;-58
2023/06/05 13:25:56;;;;;;;7.05;4.50;;;;;;;;;;5012189;28;20220;-58
2023/06/05 13:28:22;;;;;;;7.70;4.30;;;;;;;;;;5020999;28;20235;-58
2023/06/05 13:30:47;;;;;;;7.60;3.97;;;;;;;;;;5030275;28;20204;-58
2023/06/05 13:33:12;;;;;;;8.00;4.75;;;;;;;;;;5032034;28;20306;-58
2023/06/05 13:35:38;;;;;;;7.70;4.20;;;;;;;;;;5029773;28;20222;-58
2023/06/05 13:38:03;;;;;;;8.50;4.07;;;;;;;;;;5010482;28;20211;-58
2023/06/05 13:40:28;;;;;;;6.60;3.67;;;;;;;;;;5011606;28;20682;-58
2023/06/05 13:42:54;;;;;;;7.47;4.13;;;;;;;;;;5012756;28;20295;-58
2023/06/05 13:45:19;;;;;;;9.32;4.40;;;;;;;;;;5011203;28;20270;-58
2023/06/05 13:47:44;;;;;;;6.57;3.88;;;;;;;;;;5011698;28;20212;-58
2023/06/05 13:50:10;;;;;;;8.55;3.70;;;;;;;;;;5011166;28;20200;-58
2023/06/05 13:52:35;;;;;;;9.35;3.95;;;;;;;;;;5012079;28;20586;-58
2023/06/05 13:55:01;;;;;;;8.88;3.97;;;;;;;;;;5011381;28;20236;-58
2023/06/05 13:57:26;;;;;;;5.70;3.30;;;;;;;;;;5005552;28;20626;-58
2023/06/05 13:59:52;;;;;;;7.50;3.33;;;;;;;;;;4984638;28;20209;-58
2023/06/05 14:02:17;;;;;;;6.20;3.60;;;;;;;;;;4991632;28;20216;-58
2023/06/05 14:04:42;;;;;;;7.90;4.05;;;;;;;;;;4980387;28;20223;-58
2023/06/05 14:07:08;;;;;;;7.88;4.25;;;;;;;;;;4996091;28;20221;-58
2023/06/05 14:09:34;;;;;;;9.23;4.30;;;;;;;;;;5005438;28;20216;-58
2023/06/05 14:11:59;;;;;;;7.32;3.05;;;;;;;;;;4986050;28;20327;-58
2023/06/05 14:14:24;;;;;;;8.25;3.72;;;;;;;;;;4989353;28;20783;-58
2023/06/05 14:16:50;;;;;;;5.45;3.50;;;;;;;;;;5009957;28;20287;-58
2023/06/05 14:19:16;;;;;;;6.10;3.10;;;;;;;;;;5008295;28;20216;-58
2023/06/05 14:21:42;;;;;;;7.60;3.40;;;;;;;;;;4989917;28;20807;-58
2023/06/05 14:24:07;;;;;;;9.50;3.97;;;;;;;;;;4981989;28;20421;-58
2023/06/05 14:26:34;;;;;;;7.65;3.40;;;;;;;;;;4982662;28;20217;-58
2023/06/05 14:28:59;;;;;;;6.80;3.35;;;;;;;;;;5002916;28;20232;-58
2023/06/05 14:31:27;;;;;;;6.30;3.42;;;;;;;;;;4989902;28;20308;-58
2023/06/05 14:33:52;;;;;;;9.20;3.20;;;;;;;;;;4989679;28;20217;-58
2023/06/05 14:36:18;;;;;;;7.18;3.10;;;;;;;;;;4989879;28;20221;-58